createdAt,value
2023-07-12T00:00:53.363Z,21.19
2023-07-12T00:03:20.344Z,21.23
2023-07-12T00:05:48.087Z,21.20
2023-07-12T00:08:27.904Z,21.04
2023-07-12T00:10:58.334Z,20.89
2023-07-12T00:13:25.966Z,20.94
2023-07-12T00:15:54.189Z,20.86
2023-07-12T00:18:23.932Z,20.82
2023-07-12T00:20:51.696Z,20.62
2023-07-12T00:23:19.540Z,20.64
2023-07-12T00:25:47.807Z,20.59
2023-07-12T00:28:26.683Z,20.54
2023-07-12T00:30:55.479Z,20.56
2023-07-12T00:33:22.520Z,20.59
2023-07-12T00:35:50.500Z,20.63
2023-07-12T00:38:20.144Z,20.61
2023-07-12T00:41:04.040Z,20.69
2023-07-12T00:43:44.852Z,20.76
2023-07-12T00:46:38.919Z,20.80
2023-07-12T00:49:06.029Z,20.68
2023-07-12T00:51:49.867Z,20.59
2023-07-12T00:54:19.726Z,20.56
2023-07-12T00:56:46.918Z,20.57
2023-07-12T00:59:30.508Z,20.52
2023-07-12T01:02:05.252Z,20.53
2023-07-12T01:04:47.938Z,20.49
2023-07-12T01:07:16.888Z,20.50
2023-07-12T01:09:43.689Z,20.46
2023-07-12T01:12:10.848Z,20.44
2023-07-12T01:14:40.139Z,20.46
2023-07-12T01:17:07.836Z,20.46
2023-07-12T01:19:37.362Z,20.46
2023-07-12T01:22:04.663Z,20.42
2023-07-12T01:24:33.095Z,20.32
2023-07-12T01:27:04.969Z,20.28
2023-07-12T01:29:31.578Z,20.17
2023-07-12T01:31:58.358Z,20.24
2023-07-12T01:34:25.916Z,20.27
2023-07-12T01:36:52.545Z,20.24
2023-07-12T01:39:19.774Z,20.35
2023-07-12T01:41:46.413Z,20.37
2023-07-12T01:44:13.019Z,20.34
2023-07-12T01:46:39.727Z,20.23
2023-07-12T01:49:06.373Z,20.23
2023-07-12T01:51:33.915Z,20.21
2023-07-12T01:54:00.583Z,20.17
2023-07-12T01:56:27.332Z,20.05
2023-07-12T01:58:53.881Z,19.95
2023-07-12T02:01:20.904Z,19.97
2023-07-12T02:03:47.733Z,20.01
2023-07-12T02:06:14.532Z,20.11
2023-07-12T02:08:41.101Z,20.15
2023-07-12T02:11:07.896Z,20.13
2023-07-12T02:13:34.674Z,20.15
2023-07-12T02:16:01.398Z,20.14
2023-07-12T02:18:28.066Z,20.20
2023-07-12T02:20:55.385Z,20.09
2023-07-12T02:23:21.916Z,20.06
2023-07-12T02:25:49.235Z,20.07
2023-07-12T02:28:15.797Z,20.07
2023-07-12T02:30:44.231Z,20.06
2023-07-12T02:33:11.814Z,20.04
2023-07-12T02:35:41.777Z,19.98
2023-07-12T02:38:09.110Z,19.87
2023-07-12T02:40:36.341Z,19.75
2023-07-12T02:43:02.933Z,19.81
2023-07-12T02:45:29.553Z,19.85
2023-07-12T02:47:56.252Z,19.82
2023-07-12T02:50:23.001Z,19.87
2023-07-12T02:52:49.924Z,19.86
2023-07-12T02:55:16.758Z,19.84
2023-07-12T02:57:43.370Z,19.82
2023-07-12T03:00:10.725Z,19.79
2023-07-12T03:02:37.401Z,19.79
2023-07-12T03:05:04.261Z,19.76
2023-07-12T03:07:30.894Z,19.82
2023-07-12T03:09:58.244Z,19.81
2023-07-12T03:12:25.354Z,19.82
2023-07-12T03:14:52.828Z,19.87
2023-07-12T03:17:19.733Z,19.88
2023-07-12T03:19:46.418Z,19.89
2023-07-12T03:22:12.944Z,19.88
2023-07-12T03:24:39.515Z,19.85
2023-07-12T03:27:06.278Z,19.85
2023-07-12T03:29:32.838Z,19.87
2023-07-12T03:31:59.480Z,19.85
2023-07-12T03:34:26.055Z,19.78
2023-07-12T03:36:52.850Z,19.78
2023-07-12T03:39:19.386Z,19.82
2023-07-12T03:41:45.923Z,19.85
2023-07-12T03:44:12.736Z,19.70
2023-07-12T03:46:41.890Z,19.64
2023-07-12T03:49:10.418Z,19.67
2023-07-12T03:51:45.882Z,19.70
2023-07-12T03:54:13.378Z,19.69
2023-07-12T04:00:19.335Z,19.74
2023-07-12T04:02:45.874Z,19.79
2023-07-12T04:05:12.471Z,19.79
2023-07-12T04:07:39.019Z,19.83
2023-07-12T04:10:06.368Z,19.89
2023-07-12T04:12:34.059Z,19.89
2023-07-12T04:15:01.939Z,19.89
2023-07-12T04:17:31.318Z,19.87
2023-07-12T04:19:58.791Z,19.83
2023-07-12T04:22:25.423Z,19.86
2023-07-12T04:24:53.683Z,19.95
2023-07-12T04:27:27.810Z,19.96
2023-07-12T04:29:56.713Z,20.01
2023-07-12T04:32:25.310Z,20.07
2023-07-12T04:34:53.388Z,20.16
2023-07-12T04:37:20.107Z,20.21
2023-07-12T04:39:46.711Z,20.26
2023-07-12T04:42:13.261Z,20.32
2023-07-12T04:44:39.871Z,20.32
2023-07-12T04:47:10.348Z,20.34
2023-07-12T04:49:37.501Z,20.41
2023-07-12T04:52:07.711Z,20.47
2023-07-12T04:54:35.442Z,20.53
2023-07-12T04:57:02.028Z,20.60
2023-07-12T04:59:28.729Z,20.69
2023-07-12T05:01:55.452Z,20.78
2023-07-12T05:04:21.985Z,20.84
2023-07-12T05:06:48.860Z,20.95
2023-07-12T05:09:15.453Z,21.20
2023-07-12T05:11:41.973Z,21.48
2023-07-12T05:14:08.835Z,21.73
2023-07-12T05:16:35.543Z,21.93
2023-07-12T05:19:12.340Z,22.07
2023-07-12T05:21:38.880Z,22.10
2023-07-12T05:24:05.840Z,22.09
2023-07-12T05:26:32.438Z,21.94
2023-07-12T05:28:58.982Z,21.85
2023-07-12T05:31:25.697Z,21.84
2023-07-12T05:33:52.327Z,21.89
2023-07-12T05:36:19.040Z,22.02
2023-07-12T05:38:46.686Z,22.14
2023-07-12T05:41:13.632Z,22.23
2023-07-12T05:43:41.662Z,22.30
2023-07-12T05:46:08.490Z,22.47
2023-07-12T05:48:35.124Z,22.66
2023-07-12T05:51:02.517Z,22.83
2023-07-12T05:53:29.112Z,22.89
2023-07-12T05:55:57.042Z,23.00
2023-07-12T05:58:24.164Z,23.08
2023-07-12T06:00:56.412Z,23.15
2023-07-12T06:03:23.203Z,23.13
2023-07-12T06:05:49.929Z,23.17
2023-07-12T06:08:16.549Z,23.29
2023-07-12T06:10:45.560Z,23.40
2023-07-12T06:13:12.638Z,23.39
2023-07-12T06:15:39.335Z,23.59
2023-07-12T06:18:06.346Z,23.83
2023-07-12T06:20:33.020Z,24.03
2023-07-12T06:22:59.705Z,23.95
2023-07-12T06:25:26.431Z,23.94
2023-07-12T06:27:53.028Z,24.19
2023-07-12T06:30:20.458Z,24.48
2023-07-12T06:32:47.386Z,24.72
2023-07-12T06:35:14.057Z,25.02
2023-07-12T06:37:40.640Z,25.45
2023-07-12T06:40:07.939Z,25.77
2023-07-12T06:42:34.978Z,25.85
2023-07-12T06:45:01.705Z,25.80
2023-07-12T06:47:28.336Z,25.86
2023-07-12T06:49:55.015Z,25.85
2023-07-12T06:52:21.833Z,25.81
2023-07-12T06:54:48.438Z,25.85
2023-07-12T06:57:15.046Z,25.91
2023-07-12T06:59:41.620Z,25.96
2023-07-12T07:02:11.383Z,25.62
2023-07-12T07:04:38.240Z,25.83
2023-07-12T07:07:05.560Z,25.96
2023-07-12T07:09:34.639Z,25.87
2023-07-12T07:12:01.178Z,26.11
2023-07-12T07:14:27.721Z,26.29
2023-07-12T07:16:54.385Z,25.99
2023-07-12T07:19:21.037Z,26.27
2023-07-12T07:21:51.308Z,26.53
2023-07-12T07:24:18.433Z,26.48
2023-07-12T07:26:45.503Z,26.39
2023-07-12T07:29:12.061Z,26.16
2023-07-12T07:31:38.675Z,26.34
2023-07-12T07:34:05.597Z,26.50
2023-07-12T07:36:32.228Z,26.63
2023-07-12T07:38:58.764Z,26.61
2023-07-12T07:41:25.357Z,26.56
2023-07-12T07:43:52.044Z,26.56
2023-07-12T07:46:18.721Z,26.77
2023-07-12T07:48:45.255Z,27.19
2023-07-12T07:51:13.184Z,27.78
2023-07-12T07:53:40.286Z,27.54
2023-07-12T07:56:07.193Z,27.04
2023-07-12T07:58:34.256Z,26.37
2023-07-12T08:01:00.883Z,25.71
2023-07-12T08:03:27.611Z,25.37
2023-07-12T08:06:02.997Z,25.26
2023-07-12T08:08:30.741Z,25.07
2023-07-12T08:10:57.591Z,24.73
2023-07-12T08:13:24.202Z,24.57
2023-07-12T08:15:50.795Z,24.34
2023-07-12T08:18:17.469Z,24.29
2023-07-12T08:20:44.422Z,24.20
2023-07-12T08:23:10.987Z,24.23
2023-07-12T08:25:37.589Z,24.22
2023-07-12T08:28:04.364Z,24.27
2023-07-12T08:30:31.181Z,24.33
2023-07-12T08:32:57.846Z,24.36
2023-07-12T08:35:34.197Z,24.47
2023-07-12T08:38:09.588Z,24.53
2023-07-12T08:40:44.530Z,24.49
2023-07-12T08:43:16.489Z,24.45
2023-07-12T08:45:45.414Z,24.33
2023-07-12T08:48:19.517Z,24.31
2023-07-12T08:50:47.233Z,24.32
2023-07-12T08:53:19.849Z,24.28
2023-07-12T08:55:46.944Z,24.31
2023-07-12T08:58:32.262Z,24.34
2023-07-12T09:01:07.547Z,24.28
2023-07-12T09:03:34.330Z,24.26
2023-07-12T09:06:02.355Z,24.28
2023-07-12T09:08:40.599Z,24.41
2023-07-12T09:11:18.889Z,24.55
2023-07-12T09:13:47.894Z,24.70
2023-07-12T09:16:35.913Z,25.00
2023-07-12T09:19:20.155Z,25.22
2023-07-12T09:21:54.885Z,25.35
2023-07-12T09:24:32.500Z,25.42
2023-07-12T09:27:16.827Z,25.58
2023-07-12T09:29:43.397Z,25.71
2023-07-12T09:32:29.660Z,25.98
2023-07-12T09:34:56.711Z,26.64
2023-07-12T09:37:24.055Z,27.56
2023-07-12T09:40:01.884Z,28.43
2023-07-12T09:42:30.983Z,29.62
2023-07-12T09:44:59.318Z,30.95
2023-07-12T09:48:06.651Z,33.12
2023-07-12T09:50:44.275Z,34.78
2023-07-12T09:53:21.780Z,35.93
2023-07-12T09:56:14.071Z,37.53
2023-07-12T09:58:49.445Z,38.33
2023-07-12T10:01:42.582Z,40.28
2023-07-12T10:04:43.051Z,41.58
2023-07-12T10:07:37.404Z,42.97
2023-07-12T10:10:10.118Z,43.44
2023-07-12T10:12:52.289Z,43.39
2023-07-12T10:15:18.870Z,43.65
2023-07-12T10:17:46.149Z,44.07
2023-07-12T10:20:20.360Z,43.63
2023-07-12T10:22:47.623Z,43.57
2023-07-12T10:25:25.158Z,43.53
2023-07-12T10:28:07.454Z,43.23
2023-07-12T10:30:35.520Z,42.81
2023-07-12T10:33:11.987Z,41.57
2023-07-12T10:35:45.824Z,40.79
2023-07-12T10:38:18.344Z,40.16
2023-07-12T10:40:56.633Z,40.36
2023-07-12T10:43:32.760Z,40.48
2023-07-12T10:46:05.462Z,41.12
2023-07-12T10:48:32.881Z,41.41
2023-07-12T10:51:30.641Z,40.67
2023-07-12T10:53:57.298Z,41.09
2023-07-12T10:56:50.872Z,41.26
2023-07-12T10:59:43.876Z,40.07
2023-07-12T11:02:21.647Z,39.30
2023-07-12T11:04:50.402Z,39.41
2023-07-12T11:07:16.952Z,39.24
2023-07-12T11:09:46.069Z,39.14
2023-07-12T11:12:17.419Z,39.59
2023-07-12T11:14:52.728Z,40.10
2023-07-12T11:17:28.136Z,39.42
2023-07-12T11:20:10.572Z,39.43
2023-07-12T11:23:06.007Z,39.26
2023-07-12T11:25:38.829Z,38.96
2023-07-12T11:28:25.809Z,39.13
2023-07-12T11:31:14.394Z,39.28
2023-07-12T11:33:45.381Z,38.83
2023-07-12T11:36:20.749Z,38.70
2023-07-12T11:38:50.372Z,38.43
2023-07-12T11:41:28.274Z,38.92
2023-07-12T11:44:15.847Z,39.24
2023-07-12T11:46:43.461Z,41.28
2023-07-12T11:49:31.611Z,42.69
2023-07-12T11:51:59.244Z,42.93
2023-07-12T11:54:36.082Z,44.40
2023-07-12T11:57:04.117Z,45.58
2023-07-12T11:59:37.295Z,45.28
2023-07-12T12:02:08.428Z,44.55
2023-07-12T12:04:35.083Z,44.87
2023-07-12T12:07:05.375Z,45.55
2023-07-12T12:09:35.488Z,45.81
2023-07-12T12:12:03.787Z,45.87
2023-07-12T12:14:37.251Z,45.50
2023-07-12T12:17:06.964Z,44.96
2023-07-12T12:19:33.998Z,44.65
2023-07-12T12:22:11.821Z,44.25
2023-07-12T12:24:57.946Z,42.83
2023-07-12T12:27:37.810Z,40.67
2023-07-12T12:30:34.738Z,39.06
2023-07-12T12:33:08.591Z,38.17
2023-07-12T12:35:48.665Z,37.46
2023-07-12T12:38:24.787Z,37.38
2023-07-12T12:41:11.630Z,37.33
2023-07-12T12:43:38.353Z,37.08
2023-07-12T12:46:21.239Z,36.44
2023-07-12T12:53:56.476Z,36.36
2023-07-12T13:04:52.310Z,36.11
2023-07-12T13:06:42.375Z,35.96
2023-07-12T13:17:33.297Z,35.57
2023-07-12T13:20:05.524Z,35.30
2023-07-12T13:22:32.162Z,35.15
2023-07-12T13:25:00.746Z,34.97
2023-07-12T13:27:32.528Z,34.94
2023-07-12T13:30:07.815Z,34.81
2023-07-12T13:32:34.358Z,34.49
2023-07-12T13:37:42.453Z,33.76
2023-07-12T13:40:20.782Z,33.54
2023-07-12T13:42:57.713Z,33.12
2023-07-12T13:45:25.801Z,32.81
2023-07-12T13:47:54.025Z,32.70
2023-07-12T13:50:22.128Z,32.58
2023-07-12T13:52:48.927Z,32.60
2023-07-12T13:55:18.574Z,32.82
2023-07-12T13:57:47.310Z,33.05
2023-07-12T14:00:25.386Z,33.08
2023-07-12T14:05:44.873Z,33.23
2023-07-12T14:10:42.776Z,33.07
2023-07-12T14:13:22.334Z,32.85
2023-07-12T14:15:50.303Z,32.67
2023-07-12T14:18:16.927Z,32.72
2023-07-12T14:20:43.598Z,32.82
2023-07-12T14:23:17.927Z,32.72
2023-07-12T14:25:44.434Z,32.47
2023-07-12T14:28:12.651Z,32.42
2023-07-12T14:33:40.006Z,31.91
2023-07-12T14:36:07.213Z,31.74
2023-07-12T14:38:34.541Z,31.57
2023-07-12T14:41:01.253Z,31.44
2023-07-12T14:43:27.816Z,31.46
2023-07-12T14:45:54.429Z,31.53
2023-07-12T14:48:20.947Z,31.47
2023-07-12T14:50:49.162Z,31.22
2023-07-12T14:53:22.474Z,31.01
2023-07-12T14:55:49.509Z,30.63
2023-07-12T14:58:20.115Z,30.29
2023-07-12T15:00:47.762Z,29.79
2023-07-12T15:03:23.104Z,29.23
2023-07-12T15:05:51.200Z,28.67
2023-07-12T15:08:27.872Z,28.17
2023-07-12T15:10:55.894Z,27.71
2023-07-12T15:13:24.228Z,27.38
2023-07-12T15:15:52.357Z,27.13
2023-07-12T15:18:24.282Z,26.92
2023-07-12T15:20:53.621Z,26.67
2023-07-12T15:23:24.611Z,26.49
2023-07-12T15:25:52.813Z,26.24
2023-07-12T15:28:20.883Z,25.96
2023-07-12T15:30:48.768Z,25.74
2023-07-12T15:33:21.486Z,25.59
2023-07-12T15:35:49.098Z,25.57
2023-07-12T15:38:16.647Z,25.69
2023-07-12T15:41:17.847Z,25.84
2023-07-12T15:43:48.332Z,25.95
2023-07-12T15:46:20.651Z,25.90
2023-07-12T15:48:47.819Z,25.86
2023-07-12T15:51:22.730Z,26.04
2023-07-12T15:53:54.390Z,25.93
2023-07-12T15:56:35.806Z,25.84
2023-07-12T15:59:05.317Z,25.70
2023-07-12T16:01:32.600Z,25.56
2023-07-12T16:03:59.963Z,25.34
2023-07-12T16:06:27.921Z,25.14
2023-07-12T16:08:55.317Z,24.71
2023-07-12T16:11:38.496Z,24.21
2023-07-12T16:14:22.757Z,24.10
2023-07-12T16:16:49.653Z,23.93
2023-07-12T16:19:17.912Z,23.73
2023-07-12T16:21:45.009Z,23.72
2023-07-12T16:24:13.040Z,23.55
2023-07-12T16:26:40.365Z,23.33
2023-07-12T16:29:08.340Z,23.42
2023-07-12T16:31:44.331Z,23.43
2023-07-12T16:34:20.073Z,23.31
2023-07-12T16:36:48.350Z,23.16
2023-07-12T16:39:16.322Z,23.09
2023-07-12T16:41:44.311Z,23.00
2023-07-12T16:44:20.162Z,22.77
2023-07-12T16:46:48.154Z,22.64
2023-07-12T16:49:16.154Z,22.53
2023-07-12T16:52:04.380Z,22.62
2023-07-12T16:54:33.159Z,22.71
2023-07-12T16:57:00.769Z,22.82
2023-07-12T16:59:29.545Z,22.90
2023-07-12T17:01:57.074Z,22.99
2023-07-12T17:04:24.562Z,22.98
2023-07-12T17:06:51.378Z,22.93
2023-07-12T17:09:24.218Z,22.92
2023-07-12T17:11:52.699Z,22.86
2023-07-12T17:14:19.244Z,22.81
2023-07-12T17:16:46.617Z,22.70
2023-07-12T17:19:13.311Z,22.52
2023-07-12T17:24:13.073Z,22.33
2023-07-12T17:26:39.983Z,22.14
2023-07-12T17:29:06.767Z,22.04
2023-07-12T17:31:37.331Z,21.93
2023-07-12T17:34:22.372Z,21.96
2023-07-12T17:36:49.960Z,21.89
2023-07-12T17:39:17.724Z,21.89
2023-07-12T17:41:45.561Z,21.96
2023-07-12T17:44:19.317Z,21.96
2023-07-12T17:46:47.560Z,22.00
2023-07-12T17:49:14.104Z,22.01
2023-07-12T17:51:40.754Z,21.99
2023-07-12T17:54:12.048Z,22.06
2023-07-12T17:56:38.673Z,22.06
2023-07-12T17:59:05.483Z,22.05
2023-07-12T18:01:32.206Z,22.00
2023-07-12T18:03:58.846Z,21.94
2023-07-12T18:06:34.330Z,21.85
2023-07-12T18:09:01.254Z,21.73
2023-07-12T18:11:32.492Z,21.74
2023-07-12T18:14:00.349Z,21.78
2023-07-12T18:16:32.382Z,21.65
2023-07-12T18:18:59.317Z,21.64
2023-07-12T18:21:28.315Z,21.60
2023-07-12T18:23:56.749Z,21.52
2023-07-12T18:26:24.427Z,21.46
2023-07-12T18:28:51.573Z,21.48
2023-07-12T18:31:22.559Z,21.53
2023-07-12T18:33:49.248Z,21.49
2023-07-12T18:36:21.023Z,21.44
2023-07-12T18:38:49.340Z,21.43
2023-07-12T18:41:21.818Z,21.39
2023-07-12T18:43:49.561Z,21.35
2023-07-12T18:46:16.431Z,21.32
2023-07-12T18:48:45.104Z,21.25
2023-07-12T18:51:21.906Z,21.20
2023-07-12T18:53:48.965Z,21.19
2023-07-12T18:56:18.383Z,21.03
2023-07-12T18:58:45.654Z,20.98
2023-07-12T19:01:21.487Z,20.94
2023-07-12T19:03:48.472Z,20.93
2023-07-12T19:06:18.521Z,20.90
2023-07-12T19:08:45.880Z,20.97
2023-07-12T19:11:22.637Z,20.99
2023-07-12T19:13:51.696Z,21.03
2023-07-12T19:16:18.807Z,21.05
2023-07-12T19:18:46.397Z,21.02
2023-07-12T19:21:28.945Z,21.06
2023-07-12T19:23:57.571Z,21.09
2023-07-12T19:26:26.326Z,21.14
2023-07-12T19:28:56.558Z,21.15
2023-07-12T19:31:40.874Z,21.14
2023-07-12T19:34:14.196Z,21.13
2023-07-12T19:36:40.725Z,21.12
2023-07-12T19:39:07.339Z,21.10
2023-07-12T19:41:35.878Z,21.11
2023-07-12T19:44:03.548Z,21.17
2023-07-12T19:46:30.389Z,21.15
2023-07-12T19:48:57.062Z,21.13
2023-07-12T19:51:28.145Z,21.18
2023-07-12T19:53:56.260Z,21.18
2023-07-12T19:56:23.076Z,21.18
2023-07-12T19:58:53.181Z,21.16
2023-07-12T20:01:20.570Z,21.14
2023-07-12T20:03:47.474Z,21.13
2023-07-12T20:06:14.366Z,21.06
2023-07-12T20:08:41.790Z,20.96
2023-07-12T20:11:09.340Z,20.84
2023-07-12T20:13:35.917Z,20.79
2023-07-12T20:16:02.649Z,20.82
2023-07-12T20:18:29.947Z,20.86
2023-07-12T20:20:56.632Z,20.91
2023-07-12T20:23:24.163Z,20.91
2023-07-12T20:25:53.388Z,20.98
2023-07-12T20:28:22.230Z,20.98
2023-07-12T20:30:49.582Z,20.95
2023-07-12T20:33:19.105Z,20.91
2023-07-12T20:35:45.818Z,20.88
2023-07-12T20:38:12.403Z,20.84
2023-07-12T20:40:39.123Z,20.82
2023-07-12T20:43:06.246Z,20.81
2023-07-12T20:45:33.543Z,20.82
2023-07-12T20:48:01.908Z,20.81
2023-07-12T20:50:28.780Z,20.79
2023-07-12T20:52:56.853Z,20.82
2023-07-12T20:55:24.344Z,20.82
2023-07-12T20:57:52.102Z,20.84
2023-07-12T21:00:20.617Z,20.85
2023-07-12T21:02:48.353Z,20.85
2023-07-12T21:05:17.096Z,20.87
2023-07-12T21:07:45.125Z,20.91
2023-07-12T21:10:13.757Z,20.95
2023-07-12T21:12:40.727Z,20.97
2023-07-12T21:15:08.165Z,20.94
2023-07-12T21:17:35.493Z,20.93
2023-07-12T21:20:02.520Z,20.92
2023-07-12T21:22:29.020Z,20.91
2023-07-12T21:24:55.597Z,20.88
2023-07-12T21:27:23.814Z,20.82
2023-07-12T21:29:50.662Z,20.77
2023-07-12T21:32:17.204Z,20.70
2023-07-12T21:34:43.816Z,20.66
2023-07-12T21:37:10.470Z,20.63
2023-07-12T21:39:37.144Z,20.54
2023-07-12T21:42:04.128Z,20.49
2023-07-12T21:44:31.732Z,20.51
2023-07-12T21:46:58.365Z,20.44
2023-07-12T21:49:25.006Z,20.43
2023-07-12T21:51:51.516Z,20.41
2023-07-12T21:54:18.442Z,20.41
2023-07-12T21:56:45.709Z,20.40
2023-07-12T21:59:12.284Z,20.35
2023-07-12T22:01:38.933Z,20.34
2023-07-12T22:04:05.801Z,20.28
2023-07-12T22:06:33.306Z,20.30
2023-07-12T22:08:59.880Z,20.29
2023-07-12T22:11:26.385Z,20.29
2023-07-12T22:13:54.130Z,20.27
2023-07-12T22:16:22.717Z,20.30
2023-07-12T22:18:49.874Z,20.31
2023-07-12T22:21:18.692Z,20.27
2023-07-12T22:23:45.470Z,20.23
2023-07-12T22:26:14.831Z,20.13
2023-07-12T22:28:42.039Z,20.03
2023-07-12T22:31:08.672Z,19.98
2023-07-12T22:33:35.278Z,19.93
2023-07-12T22:36:01.781Z,19.90
2023-07-12T22:38:28.340Z,19.89
2023-07-12T22:41:00.930Z,19.87
2023-07-12T22:43:28.162Z,19.80
2023-07-12T22:45:55.445Z,19.75
2023-07-12T22:48:22.340Z,19.68
2023-07-12T22:50:50.484Z,19.55
2023-07-12T22:53:16.988Z,19.51
2023-07-12T22:55:44.085Z,19.48
2023-07-12T22:58:10.905Z,19.41
2023-07-12T23:00:37.714Z,19.40
2023-07-12T23:03:04.392Z,19.35
2023-07-12T23:05:31.015Z,19.28
2023-07-12T23:07:57.946Z,19.24
2023-07-12T23:10:25.377Z,19.25
2023-07-12T23:12:59.156Z,19.29
2023-07-12T23:15:25.772Z,19.34
2023-07-12T23:17:52.419Z,19.38
2023-07-12T23:20:21.001Z,19.37
2023-07-12T23:22:47.751Z,19.33
2023-07-12T23:25:26.639Z,19.30
2023-07-12T23:27:54.853Z,19.34
2023-07-12T23:30:23.592Z,19.38
2023-07-12T23:32:51.731Z,19.33
2023-07-12T23:35:19.008Z,19.26
2023-07-12T23:37:46.027Z,19.25
2023-07-12T23:40:14.546Z,19.21
2023-07-12T23:42:41.146Z,19.17
2023-07-12T23:45:11.209Z,19.18
2023-07-12T23:47:38.133Z,19.17
2023-07-12T23:50:05.030Z,19.18
2023-07-12T23:52:31.600Z,19.20
2023-07-12T23:54:59.704Z,19.23
2023-07-12T23:57:26.293Z,19.26
2023-07-12T23:59:53.441Z,19.26
